sensor_id;sensor_type;location;lat;lon;timestamp;P1;durP1;ratioP1;P2;durP2;ratioP2
76357;SDS011;65185;21.060;105.826;2023-07-24T00:01:06;16.27;;;7.45;;
76357;SDS011;65185;21.060;105.826;2023-07-24T00:03:33;14.52;;;7.38;;
76357;SDS011;65185;21.060;105.826;2023-07-24T00:05:59;16.33;;;7.32;;
76357;SDS011;65185;21.060;105.826;2023-07-24T00:08:27;15.10;;;7.38;;
76357;SDS011;65185;21.060;105.826;2023-07-24T00:10:54;15.75;;;7.68;;
76357;SDS011;65185;21.060;105.826;2023-07-24T00:13:21;17.23;;;8.13;;
76357;SDS011;65185;21.060;105.826;2023-07-24T00:15:47;17.15;;;7.63;;
76357;SDS011;65185;21.060;105.826;2023-07-24T00:18:14;16.25;;;7.75;;
76357;SDS011;65185;21.060;105.826;2023-07-24T00:20:41;18.10;;;8.35;;
76357;SDS011;65185;21.060;105.826;2023-07-24T00:23:07;16.20;;;7.80;;
76357;SDS011;65185;21.060;105.826;2023-07-24T00:25:34;16.77;;;8.07;;
76357;SDS011;65185;21.060;105.826;2023-07-24T00:28:01;17.27;;;7.63;;
76357;SDS011;65185;21.060;105.826;2023-07-24T00:30:28;13.23;;;7.35;;
76357;SDS011;65185;21.060;105.826;2023-07-24T00:32:54;12.50;;;7.30;;
76357;SDS011;65185;21.060;105.826;2023-07-24T00:35:21;17.23;;;8.32;;
76357;SDS011;65185;21.060;105.826;2023-07-24T00:37:48;15.90;;;7.55;;
76357;SDS011;65185;21.060;105.826;2023-07-24T00:40:14;14.63;;;6.93;;
76357;SDS011;65185;21.060;105.826;2023-07-24T00:42:45;18.63;;;7.85;;
76357;SDS011;65185;21.060;105.826;2023-07-24T00:45:13;18.38;;;8.27;;
76357;SDS011;65185;21.060;105.826;2023-07-24T00:47:41;16.55;;;7.75;;
76357;SDS011;65185;21.060;105.826;2023-07-24T00:50:09;13.13;;;7.00;;
76357;SDS011;65185;21.060;105.826;2023-07-24T00:52:37;15.85;;;7.00;;
76357;SDS011;65185;21.060;105.826;2023-07-24T00:55:04;11.50;;;5.55;;
76357;SDS011;65185;21.060;105.826;2023-07-24T00:57:33;11.07;;;4.85;;
76357;SDS011;65185;21.060;105.826;2023-07-24T00:59:59;9.10;;;4.45;;
76357;SDS011;65185;21.060;105.826;2023-07-24T01:02:26;10.70;;;4.63;;
76357;SDS011;65185;21.060;105.826;2023-07-24T01:04:54;12.52;;;5.05;;
76357;SDS011;65185;21.060;105.826;2023-07-24T01:07:21;11.77;;;5.22;;
76357;SDS011;65185;21.060;105.826;2023-07-24T01:09:48;8.65;;;4.18;;
76357;SDS011;65185;21.060;105.826;2023-07-24T01:12:27;10.63;;;4.15;;
76357;SDS011;65185;21.060;105.826;2023-07-24T01:17:57;10.70;;;3.90;;
76357;SDS011;65185;21.060;105.826;2023-07-24T01:20:30;8.82;;;4.03;;
76357;SDS011;65185;21.060;105.826;2023-07-24T01:26:00;10.27;;;4.30;;
76357;SDS011;65185;21.060;105.826;2023-07-24T01:28:30;11.10;;;4.40;;
76357;SDS011;65185;21.060;105.826;2023-07-24T01:30:57;11.57;;;4.35;;
76357;SDS011;65185;21.060;105.826;2023-07-24T01:33:24;8.65;;;4.47;;
76357;SDS011;65185;21.060;105.826;2023-07-24T01:35:55;10.10;;;4.50;;
76357;SDS011;65185;21.060;105.826;2023-07-24T01:38:24;8.27;;;4.55;;
76357;SDS011;65185;21.060;105.826;2023-07-24T01:40:52;8.75;;;4.22;;
76357;SDS011;65185;21.060;105.826;2023-07-24T01:43:22;8.32;;;3.95;;
76357;SDS011;65185;21.060;105.826;2023-07-24T01:45:52;9.93;;;4.13;;
76357;SDS011;65185;21.060;105.826;2023-07-24T01:48:20;9.98;;;4.28;;
76357;SDS011;65185;21.060;105.826;2023-07-24T01:50:46;9.55;;;4.40;;
76357;SDS011;65185;21.060;105.826;2023-07-24T01:53:13;8.93;;;3.72;;
76357;SDS011;65185;21.060;105.826;2023-07-24T01:55:40;11.13;;;4.78;;
76357;SDS011;65185;21.060;105.826;2023-07-24T01:58:07;9.32;;;4.53;;
76357;SDS011;65185;21.060;105.826;2023-07-24T02:00:33;9.93;;;5.03;;
76357;SDS011;65185;21.060;105.826;2023-07-24T02:03:00;9.15;;;4.90;;
76357;SDS011;65185;21.060;105.826;2023-07-24T02:05:27;12.02;;;5.60;;
76357;SDS011;65185;21.060;105.826;2023-07-24T02:07:54;12.10;;;5.70;;
76357;SDS011;65185;21.060;105.826;2023-07-24T02:10:21;11.38;;;5.55;;
76357;SDS011;65185;21.060;105.826;2023-07-24T02:12:47;14.48;;;6.40;;
76357;SDS011;65185;21.060;105.826;2023-07-24T02:15:14;14.35;;;6.28;;
76357;SDS011;65185;21.060;105.826;2023-07-24T02:17:41;13.02;;;6.22;;
76357;SDS011;65185;21.060;105.826;2023-07-24T02:20:08;12.20;;;5.93;;
76357;SDS011;65185;21.060;105.826;2023-07-24T02:22:34;14.68;;;7.80;;
76357;SDS011;65185;21.060;105.826;2023-07-24T02:25:01;13.07;;;7.13;;
76357;SDS011;65185;21.060;105.826;2023-07-24T02:27:29;13.32;;;7.15;;
76357;SDS011;65185;21.060;105.826;2023-07-24T02:29:59;12.13;;;7.13;;
76357;SDS011;65185;21.060;105.826;2023-07-24T02:32:27;16.73;;;7.72;;
76357;SDS011;65185;21.060;105.826;2023-07-24T02:34:54;13.48;;;7.82;;
76357;SDS011;65185;21.060;105.826;2023-07-24T02:37:20;11.93;;;7.25;;
76357;SDS011;65185;21.060;105.826;2023-07-24T02:39:47;13.73;;;7.38;;
76357;SDS011;65185;21.060;105.826;2023-07-24T02:42:14;14.70;;;7.63;;
76357;SDS011;65185;21.060;105.826;2023-07-24T02:44:40;13.80;;;6.85;;
76357;SDS011;65185;21.060;105.826;2023-07-24T02:47:07;12.25;;;6.60;;
76357;SDS011;65185;21.060;105.826;2023-07-24T02:49:34;13.90;;;7.07;;
76357;SDS011;65185;21.060;105.826;2023-07-24T02:52:01;13.02;;;8.13;;
76357;SDS011;65185;21.060;105.826;2023-07-24T02:54:27;13.30;;;7.25;;
76357;SDS011;65185;21.060;105.826;2023-07-24T02:56:54;13.00;;;7.85;;
76357;SDS011;65185;21.060;105.826;2023-07-24T02:59:21;15.98;;;9.73;;
76357;SDS011;65185;21.060;105.826;2023-07-24T03:01:47;16.25;;;8.73;;
76357;SDS011;65185;21.060;105.826;2023-07-24T03:04:14;14.50;;;8.60;;
76357;SDS011;65185;21.060;105.826;2023-07-24T03:06:41;13.55;;;7.88;;
76357;SDS011;65185;21.060;105.826;2023-07-24T03:09:08;15.13;;;8.52;;
76357;SDS011;65185;21.060;105.826;2023-07-24T03:11:35;14.70;;;7.72;;
76357;SDS011;65185;21.060;105.826;2023-07-24T03:14:02;17.13;;;8.07;;
76357;SDS011;65185;21.060;105.826;2023-07-24T03:16:28;14.32;;;7.43;;
76357;SDS011;65185;21.060;105.826;2023-07-24T03:18:55;13.05;;;6.70;;
76357;SDS011;65185;21.060;105.826;2023-07-24T03:21:22;16.08;;;8.02;;
76357;SDS011;65185;21.060;105.826;2023-07-24T03:23:49;15.82;;;7.93;;
76357;SDS011;65185;21.060;105.826;2023-07-24T03:26:16;16.13;;;8.45;;
76357;SDS011;65185;21.060;105.826;2023-07-24T03:28:43;15.32;;;8.38;;
76357;SDS011;65185;21.060;105.826;2023-07-24T03:31:09;12.05;;;6.05;;
76357;SDS011;65185;21.060;105.826;2023-07-24T03:33:36;13.95;;;6.20;;
76357;SDS011;65185;21.060;105.826;2023-07-24T03:36:03;14.93;;;6.45;;
76357;SDS011;65185;21.060;105.826;2023-07-24T03:38:29;12.07;;;6.32;;
76357;SDS011;65185;21.060;105.826;2023-07-24T03:40:56;14.70;;;7.30;;
76357;SDS011;65185;21.060;105.826;2023-07-24T03:43:23;10.20;;;5.10;;
76357;SDS011;65185;21.060;105.826;2023-07-24T03:45:50;16.10;;;5.57;;
76357;SDS011;65185;21.060;105.826;2023-07-24T03:48:16;11.70;;;5.53;;
76357;SDS011;65185;21.060;105.826;2023-07-24T03:50:43;13.52;;;5.60;;
76357;SDS011;65185;21.060;105.826;2023-07-24T03:53:10;11.05;;;5.40;;
76357;SDS011;65185;21.060;105.826;2023-07-24T03:55:36;10.63;;;5.43;;
76357;SDS011;65185;21.060;105.826;2023-07-24T03:58:03;12.07;;;5.97;;
76357;SDS011;65185;21.060;105.826;2023-07-24T04:00:30;10.45;;;4.65;;
76357;SDS011;65185;21.060;105.826;2023-07-24T04:02:57;15.20;;;5.50;;
76357;SDS011;65185;21.060;105.826;2023-07-24T04:05:23;12.80;;;5.38;;
76357;SDS011;65185;21.060;105.826;2023-07-24T04:07:51;10.95;;;5.13;;
76357;SDS011;65185;21.060;105.826;2023-07-24T04:10:19;16.00;;;5.65;;
76357;SDS011;65185;21.060;105.826;2023-07-24T04:12:47;12.48;;;5.35;;
76357;SDS011;65185;21.060;105.826;2023-07-24T04:15:13;12.32;;;5.50;;
76357;SDS011;65185;21.060;105.826;2023-07-24T04:17:40;14.25;;;6.72;;
76357;SDS011;65185;21.060;105.826;2023-07-24T04:20:07;12.10;;;5.97;;
76357;SDS011;65185;21.060;105.826;2023-07-24T04:22:35;14.82;;;6.10;;
76357;SDS011;65185;21.060;105.826;2023-07-24T04:25:02;13.13;;;5.78;;
76357;SDS011;65185;21.060;105.826;2023-07-24T04:27:28;11.25;;;6.22;;
76357;SDS011;65185;21.060;105.826;2023-07-24T04:29:55;13.45;;;6.25;;
76357;SDS011;65185;21.060;105.826;2023-07-24T04:32:22;15.88;;;6.45;;
76357;SDS011;65185;21.060;105.826;2023-07-24T04:34:49;17.38;;;6.78;;
76357;SDS011;65185;21.060;105.826;2023-07-24T04:37:15;14.95;;;6.55;;
76357;SDS011;65185;21.060;105.826;2023-07-24T04:39:42;14.30;;;6.80;;
76357;SDS011;65185;21.060;105.826;2023-07-24T04:42:09;12.68;;;6.18;;
76357;SDS011;65185;21.060;105.826;2023-07-24T04:44:35;14.90;;;6.43;;
76357;SDS011;65185;21.060;105.826;2023-07-24T04:47:02;10.82;;;5.70;;
76357;SDS011;65185;21.060;105.826;2023-07-24T04:49:29;14.70;;;5.93;;
76357;SDS011;65185;21.060;105.826;2023-07-24T04:51:58;17.67;;;6.10;;
76357;SDS011;65185;21.060;105.826;2023-07-24T04:54:25;13.25;;;5.85;;
76357;SDS011;65185;21.060;105.826;2023-07-24T04:56:52;13.10;;;5.93;;
76357;SDS011;65185;21.060;105.826;2023-07-24T04:59:18;10.80;;;5.93;;
76357;SDS011;65185;21.060;105.826;2023-07-24T05:01:45;11.93;;;6.25;;
76357;SDS011;65185;21.060;105.826;2023-07-24T05:04:12;13.38;;;5.68;;
76357;SDS011;65185;21.060;105.826;2023-07-24T05:06:38;10.20;;;5.75;;
76357;SDS011;65185;21.060;105.826;2023-07-24T05:09:05;10.98;;;4.72;;
76357;SDS011;65185;21.060;105.826;2023-07-24T05:11:32;11.63;;;4.57;;
76357;SDS011;65185;21.060;105.826;2023-07-24T05:13:58;10.05;;;4.63;;
76357;SDS011;65185;21.060;105.826;2023-07-24T05:16:25;9.43;;;4.65;;
76357;SDS011;65185;21.060;105.826;2023-07-24T05:18:52;10.75;;;5.18;;
76357;SDS011;65185;21.060;105.826;2023-07-24T05:21:18;10.02;;;5.30;;
76357;SDS011;65185;21.060;105.826;2023-07-24T05:23:45;14.75;;;5.70;;
76357;SDS011;65185;21.060;105.826;2023-07-24T05:26:12;11.00;;;4.70;;
76357;SDS011;65185;21.060;105.826;2023-07-24T05:28:39;9.82;;;4.28;;
76357;SDS011;65185;21.060;105.826;2023-07-24T05:31:05;9.32;;;4.55;;
76357;SDS011;65185;21.060;105.826;2023-07-24T05:33:33;8.32;;;4.25;;
76357;SDS011;65185;21.060;105.826;2023-07-24T05:36:03;9.90;;;4.50;;
76357;SDS011;65185;21.060;105.826;2023-07-24T05:38:30;9.50;;;3.88;;
76357;SDS011;65185;21.060;105.826;2023-07-24T05:41:01;10.32;;;4.22;;
76357;SDS011;65185;21.060;105.826;2023-07-24T05:43:29;12.85;;;4.43;;
76357;SDS011;65185;21.060;105.826;2023-07-24T05:45:57;10.55;;;4.63;;
76357;SDS011;65185;21.060;105.826;2023-07-24T05:48:24;8.65;;;4.40;;
76357;SDS011;65185;21.060;105.826;2023-07-24T05:50:51;9.50;;;4.13;;
76357;SDS011;65185;21.060;105.826;2023-07-24T05:53:17;9.00;;;4.25;;
76357;SDS011;65185;21.060;105.826;2023-07-24T05:55:44;10.63;;;4.20;;
76357;SDS011;65185;21.060;105.826;2023-07-24T05:58:11;12.23;;;4.20;;
76357;SDS011;65185;21.060;105.826;2023-07-24T06:00:38;9.52;;;4.00;;
76357;SDS011;65185;21.060;105.826;2023-07-24T06:03:05;9.18;;;4.07;;
76357;SDS011;65185;21.060;105.826;2023-07-24T06:05:31;8.95;;;3.88;;
76357;SDS011;65185;21.060;105.826;2023-07-24T06:07:58;8.82;;;3.95;;
76357;SDS011;65185;21.060;105.826;2023-07-24T06:10:25;8.65;;;3.97;;
76357;SDS011;65185;21.060;105.826;2023-07-24T06:12:51;7.93;;;3.70;;
76357;SDS011;65185;21.060;105.826;2023-07-24T06:15:18;8.52;;;4.10;;
76357;SDS011;65185;21.060;105.826;2023-07-24T06:17:45;8.73;;;4.40;;
76357;SDS011;65185;21.060;105.826;2023-07-24T06:20:12;8.57;;;4.32;;
76357;SDS011;65185;21.060;105.826;2023-07-24T06:22:38;12.50;;;3.92;;
76357;SDS011;65185;21.060;105.826;2023-07-24T06:25:05;8.07;;;3.88;;
76357;SDS011;65185;21.060;105.826;2023-07-24T06:27:32;10.52;;;3.97;;
76357;SDS011;65185;21.060;105.826;2023-07-24T06:29:59;8.07;;;3.60;;
76357;SDS011;65185;21.060;105.826;2023-07-24T06:32:25;7.65;;;3.55;;
76357;SDS011;65185;21.060;105.826;2023-07-24T06:34:52;7.25;;;3.40;;
76357;SDS011;65185;21.060;105.826;2023-07-24T06:37:19;7.95;;;3.40;;
76357;SDS011;65185;21.060;105.826;2023-07-24T06:39:46;7.07;;;3.28;;
76357;SDS011;65185;21.060;105.826;2023-07-24T06:42:12;8.88;;;3.30;;
76357;SDS011;65185;21.060;105.826;2023-07-24T06:44:39;7.28;;;3.30;;
76357;SDS011;65185;21.060;105.826;2023-07-24T06:47:06;6.97;;;3.17;;
76357;SDS011;65185;21.060;105.826;2023-07-24T06:49:32;9.10;;;3.55;;
76357;SDS011;65185;21.060;105.826;2023-07-24T06:54:58;8.80;;;3.70;;
76357;SDS011;65185;21.060;105.826;2023-07-24T06:57:25;8.80;;;3.60;;
76357;SDS011;65185;21.060;105.826;2023-07-24T06:59:51;6.38;;;3.35;;
76357;SDS011;65185;21.060;105.826;2023-07-24T07:02:17;8.52;;;3.40;;
76357;SDS011;65185;21.060;105.826;2023-07-24T07:04:44;6.65;;;3.00;;
76357;SDS011;65185;21.060;105.826;2023-07-24T07:07:10;7.75;;;3.30;;
76357;SDS011;65185;21.060;105.826;2023-07-24T07:09:37;7.57;;;3.22;;
76357;SDS011;65185;21.060;105.826;2023-07-24T07:12:03;8.40;;;3.47;;
76357;SDS011;65185;21.060;105.826;2023-07-24T07:14:30;9.35;;;3.60;;
76357;SDS011;65185;21.060;105.826;2023-07-24T07:16:56;8.27;;;3.33;;
76357;SDS011;65185;21.060;105.826;2023-07-24T07:19:23;8.80;;;3.63;;
76357;SDS011;65185;21.060;105.826;2023-07-24T07:21:49;8.73;;;3.80;;
76357;SDS011;65185;21.060;105.826;2023-07-24T07:24:15;8.43;;;3.90;;
76357;SDS011;65185;21.060;105.826;2023-07-24T07:26:42;8.35;;;3.58;;
76357;SDS011;65185;21.060;105.826;2023-07-24T07:29:10;11.25;;;3.83;;
76357;SDS011;65185;21.060;105.826;2023-07-24T07:31:36;7.43;;;3.90;;
76357;SDS011;65185;21.060;105.826;2023-07-24T07:34:03;7.97;;;3.75;;
76357;SDS011;65185;21.060;105.826;2023-07-24T07:36:29;8.13;;;3.70;;
76357;SDS011;65185;21.060;105.826;2023-07-24T07:38:55;8.60;;;4.00;;
76357;SDS011;65185;21.060;105.826;2023-07-24T07:41:22;7.93;;;3.83;;
76357;SDS011;65185;21.060;105.826;2023-07-24T07:43:48;8.15;;;3.90;;
76357;SDS011;65185;21.060;105.826;2023-07-24T07:46:15;7.43;;;3.65;;
76357;SDS011;65185;21.060;105.826;2023-07-24T07:48:41;8.07;;;3.60;;
76357;SDS011;65185;21.060;105.826;2023-07-24T07:51:08;8.05;;;3.70;;
76357;SDS011;65185;21.060;105.826;2023-07-24T07:53:34;7.47;;;3.63;;
76357;SDS011;65185;21.060;105.826;2023-07-24T07:56:01;7.05;;;3.45;;
76357;SDS011;65185;21.060;105.826;2023-07-24T07:58:27;7.00;;;3.45;;
76357;SDS011;65185;21.060;105.826;2023-07-24T08:00:54;7.22;;;3.90;;
76357;SDS011;65185;21.060;105.826;2023-07-24T08:03:20;8.63;;;4.60;;
76357;SDS011;65185;21.060;105.826;2023-07-24T08:05:47;8.95;;;5.30;;
76357;SDS011;65185;21.060;105.826;2023-07-24T08:08:13;10.82;;;6.05;;
76357;SDS011;65185;21.060;105.826;2023-07-24T08:10:40;13.35;;;8.50;;
76357;SDS011;65185;21.060;105.826;2023-07-24T08:13:06;14.00;;;7.53;;
76357;SDS011;65185;21.060;105.826;2023-07-24T08:15:36;13.63;;;7.85;;
76357;SDS011;65185;21.060;105.826;2023-07-24T08:18:03;12.60;;;8.00;;
76357;SDS011;65185;21.060;105.826;2023-07-24T08:20:31;12.65;;;8.25;;
76357;SDS011;65185;21.060;105.826;2023-07-24T08:23:00;13.20;;;9.05;;
76357;SDS011;65185;21.060;105.826;2023-07-24T08:25:26;13.50;;;9.02;;
76357;SDS011;65185;21.060;105.826;2023-07-24T08:27:53;15.25;;;9.23;;
76357;SDS011;65185;21.060;105.826;2023-07-24T08:30:19;13.38;;;8.77;;
76357;SDS011;65185;21.060;105.826;2023-07-24T08:32:46;14.80;;;9.50;;
76357;SDS011;65185;21.060;105.826;2023-07-24T08:35:14;14.85;;;10.43;;
76357;SDS011;65185;21.060;105.826;2023-07-24T08:37:42;14.05;;;9.35;;
76357;SDS011;65185;21.060;105.826;2023-07-24T08:40:09;15.60;;;10.13;;
76357;SDS011;65185;21.060;105.826;2023-07-24T08:42:39;17.35;;;10.63;;
76357;SDS011;65185;21.060;105.826;2023-07-24T08:45:11;15.05;;;10.27;;
76357;SDS011;65185;21.060;105.826;2023-07-24T08:50:08;15.02;;;10.82;;
76357;SDS011;65185;21.060;105.826;2023-07-24T08:52:37;21.55;;;12.55;;
76357;SDS011;65185;21.060;105.826;2023-07-24T08:55:05;16.83;;;11.40;;
76357;SDS011;65185;21.060;105.826;2023-07-24T08:57:32;19.25;;;11.77;;
76357;SDS011;65185;21.060;105.826;2023-07-24T08:59:59;19.52;;;12.40;;
76357;SDS011;65185;21.060;105.826;2023-07-24T09:02:30;16.98;;;11.30;;
76357;SDS011;65185;21.060;105.826;2023-07-24T09:04:58;17.27;;;11.02;;
76357;SDS011;65185;21.060;105.826;2023-07-24T09:07:24;15.02;;;11.13;;
76357;SDS011;65185;21.060;105.826;2023-07-24T09:09:50;15.43;;;10.63;;
76357;SDS011;65185;21.060;105.826;2023-07-24T09:12:18;18.27;;;10.70;;
76357;SDS011;65185;21.060;105.826;2023-07-24T09:14:44;14.88;;;10.38;;
76357;SDS011;65185;21.060;105.826;2023-07-24T09:17:11;16.35;;;11.07;;
76357;SDS011;65185;21.060;105.826;2023-07-24T09:19:37;16.80;;;11.13;;
76357;SDS011;65185;21.060;105.826;2023-07-24T09:22:11;17.35;;;11.57;;
76357;SDS011;65185;21.060;105.826;2023-07-24T09:24:51;17.65;;;11.35;;
76357;SDS011;65185;21.060;105.826;2023-07-24T09:27:24;18.20;;;10.82;;
76357;SDS011;65185;21.060;105.826;2023-07-24T09:29:56;14.05;;;10.07;;
76357;SDS011;65185;21.060;105.826;2023-07-24T09:32:24;17.35;;;10.45;;
76357;SDS011;65185;21.060;105.826;2023-07-24T09:34:52;16.23;;;10.65;;
76357;SDS011;65185;21.060;105.826;2023-07-24T09:37:32;18.45;;;10.13;;
76357;SDS011;65185;21.060;105.826;2023-07-24T09:39:59;15.50;;;10.07;;
76357;SDS011;65185;21.060;105.826;2023-07-24T09:42:33;15.25;;;10.35;;
76357;SDS011;65185;21.060;105.826;2023-07-24T09:45:02;14.70;;;9.73;;
76357;SDS011;65185;21.060;105.826;2023-07-24T09:47:30;21.70;;;11.23;;
76357;SDS011;65185;21.060;105.826;2023-07-24T09:49:57;17.92;;;11.27;;
76357;SDS011;65185;21.060;105.826;2023-07-24T09:52:27;16.88;;;11.25;;
76357;SDS011;65185;21.060;105.826;2023-07-24T09:57:36;19.00;;;11.88;;
76357;SDS011;65185;21.060;105.826;2023-07-24T10:00:03;14.55;;;10.25;;
76357;SDS011;65185;21.060;105.826;2023-07-24T10:02:30;16.67;;;11.02;;
76357;SDS011;65185;21.060;105.826;2023-07-24T10:04:57;21.13;;;12.27;;
76357;SDS011;65185;21.060;105.826;2023-07-24T10:07:23;17.00;;;11.68;;
76357;SDS011;65185;21.060;105.826;2023-07-24T10:09:50;19.73;;;11.30;;
76357;SDS011;65185;21.060;105.826;2023-07-24T10:12:18;17.65;;;10.20;;
76357;SDS011;65185;21.060;105.826;2023-07-24T10:14:48;17.33;;;10.88;;
76357;SDS011;65185;21.060;105.826;2023-07-24T10:17:24;21.40;;;10.65;;
76357;SDS011;65185;21.060;105.826;2023-07-24T10:20:04;22.80;;;11.38;;
76357;SDS011;65185;21.060;105.826;2023-07-24T10:22:31;18.75;;;11.15;;
76357;SDS011;65185;21.060;105.826;2023-07-24T10:24:58;19.85;;;10.95;;
76357;SDS011;65185;21.060;105.826;2023-07-24T10:27:25;18.90;;;10.48;;
76357;SDS011;65185;21.060;105.826;2023-07-24T10:30:00;19.63;;;10.10;;
76357;SDS011;65185;21.060;105.826;2023-07-24T10:32:32;15.73;;;10.57;;
76357;SDS011;65185;21.060;105.826;2023-07-24T10:34:59;16.98;;;10.85;;
76357;SDS011;65185;21.060;105.826;2023-07-24T10:37:34;18.65;;;11.05;;
76357;SDS011;65185;21.060;105.826;2023-07-24T10:40:02;15.90;;;11.88;;
76357;SDS011;65185;21.060;105.826;2023-07-24T10:42:30;17.65;;;10.65;;
76357;SDS011;65185;21.060;105.826;2023-07-24T10:45:08;18.17;;;10.18;;
76357;SDS011;65185;21.060;105.826;2023-07-24T10:47:35;20.90;;;10.20;;
76357;SDS011;65185;21.060;105.826;2023-07-24T10:50:02;16.27;;;9.77;;
76357;SDS011;65185;21.060;105.826;2023-07-24T10:52:30;19.15;;;10.63;;
76357;SDS011;65185;21.060;105.826;2023-07-24T10:55:00;22.05;;;13.25;;
76357;SDS011;65185;21.060;105.826;2023-07-24T10:57:30;20.33;;;12.55;;
76357;SDS011;65185;21.060;105.826;2023-07-24T10:59:58;18.83;;;10.55;;
76357;SDS011;65185;21.060;105.826;2023-07-24T11:02:25;16.13;;;9.70;;
76357;SDS011;65185;21.060;105.826;2023-07-24T11:04:52;20.80;;;10.27;;
76357;SDS011;65185;21.060;105.826;2023-07-24T11:07:18;15.73;;;9.80;;
76357;SDS011;65185;21.060;105.826;2023-07-24T11:09:46;21.35;;;11.23;;
76357;SDS011;65185;21.060;105.826;2023-07-24T11:12:13;18.48;;;10.70;;
76357;SDS011;65185;21.060;105.826;2023-07-24T11:17:14;21.08;;;11.00;;
76357;SDS011;65185;21.060;105.826;2023-07-24T11:19:40;19.90;;;11.20;;
76357;SDS011;65185;21.060;105.826;2023-07-24T11:22:07;21.00;;;11.73;;
76357;SDS011;65185;21.060;105.826;2023-07-24T11:24:41;23.48;;;13.20;;
76357;SDS011;65185;21.060;105.826;2023-07-24T11:27:09;24.08;;;12.55;;
76357;SDS011;65185;21.060;105.826;2023-07-24T11:29:39;20.27;;;11.18;;
76357;SDS011;65185;21.060;105.826;2023-07-24T11:32:05;16.73;;;9.45;;
76357;SDS011;65185;21.060;105.826;2023-07-24T11:34:32;15.88;;;8.43;;
76357;SDS011;65185;21.060;105.826;2023-07-24T11:37:00;15.70;;;8.55;;
76357;SDS011;65185;21.060;105.826;2023-07-24T11:39:27;17.60;;;9.48;;
76357;SDS011;65185;21.060;105.826;2023-07-24T11:41:53;20.92;;;11.00;;
76357;SDS011;65185;21.060;105.826;2023-07-24T11:44:24;18.63;;;10.77;;
76357;SDS011;65185;21.060;105.826;2023-07-24T11:47:03;17.95;;;10.63;;
76357;SDS011;65185;21.060;105.826;2023-07-24T11:49:31;19.15;;;9.93;;
76357;SDS011;65185;21.060;105.826;2023-07-24T11:52:04;13.82;;;8.70;;
76357;SDS011;65185;21.060;105.826;2023-07-24T11:54:35;16.05;;;8.15;;
76357;SDS011;65185;21.060;105.826;2023-07-24T11:57:01;17.33;;;8.13;;
76357;SDS011;65185;21.060;105.826;2023-07-24T11:59:28;16.10;;;8.02;;
76357;SDS011;65185;21.060;105.826;2023-07-24T12:02:13;21.23;;;8.85;;
76357;SDS011;65185;21.060;105.826;2023-07-24T12:04:40;18.83;;;9.73;;
76357;SDS011;65185;21.060;105.826;2023-07-24T12:07:07;18.17;;;9.68;;
76357;SDS011;65185;21.060;105.826;2023-07-24T12:09:34;19.27;;;10.35;;
76357;SDS011;65185;21.060;105.826;2023-07-24T12:12:02;20.80;;;11.70;;
76357;SDS011;65185;21.060;105.826;2023-07-24T12:14:30;23.15;;;12.10;;
76357;SDS011;65185;21.060;105.826;2023-07-24T12:17:03;20.60;;;11.05;;
76357;SDS011;65185;21.060;105.826;2023-07-24T12:19:35;18.15;;;10.57;;
76357;SDS011;65185;21.060;105.826;2023-07-24T12:22:01;19.02;;;9.15;;
76357;SDS011;65185;21.060;105.826;2023-07-24T12:24:29;19.55;;;9.23;;
76357;SDS011;65185;21.060;105.826;2023-07-24T12:26:56;16.90;;;8.85;;
76357;SDS011;65185;21.060;105.826;2023-07-24T12:29:22;17.23;;;10.25;;
76357;SDS011;65185;21.060;105.826;2023-07-24T12:31:48;24.35;;;9.73;;
76357;SDS011;65185;21.060;105.826;2023-07-24T12:34:15;17.58;;;9.27;;
76357;SDS011;65185;21.060;105.826;2023-07-24T12:36:41;17.58;;;8.70;;
76357;SDS011;65185;21.060;105.826;2023-07-24T12:39:08;18.85;;;9.43;;
76357;SDS011;65185;21.060;105.826;2023-07-24T12:41:35;17.83;;;8.93;;
76357;SDS011;65185;21.060;105.826;2023-07-24T12:44:01;19.63;;;9.52;;
76357;SDS011;65185;21.060;105.826;2023-07-24T12:46:28;21.27;;;10.43;;
76357;SDS011;65185;21.060;105.826;2023-07-24T12:48:54;19.83;;;9.93;;
76357;SDS011;65185;21.060;105.826;2023-07-24T12:51:21;22.73;;;10.82;;
76357;SDS011;65185;21.060;105.826;2023-07-24T12:53:47;21.02;;;11.35;;
76357;SDS011;65185;21.060;105.826;2023-07-24T12:56:13;22.60;;;10.80;;
76357;SDS011;65185;21.060;105.826;2023-07-24T12:58:40;19.88;;;10.93;;
76357;SDS011;65185;21.060;105.826;2023-07-24T13:01:06;22.20;;;10.30;;
76357;SDS011;65185;21.060;105.826;2023-07-24T13:03:33;18.13;;;10.70;;
76357;SDS011;65185;21.060;105.826;2023-07-24T13:05:59;22.10;;;11.73;;
76357;SDS011;65185;21.060;105.826;2023-07-24T13:08:26;20.10;;;11.20;;
76357;SDS011;65185;21.060;105.826;2023-07-24T13:10:52;22.60;;;11.48;;
76357;SDS011;65185;21.060;105.826;2023-07-24T13:13:19;22.08;;;11.32;;
76357;SDS011;65185;21.060;105.826;2023-07-24T13:15:45;20.15;;;11.27;;
76357;SDS011;65185;21.060;105.826;2023-07-24T13:18:12;21.27;;;11.85;;
76357;SDS011;65185;21.060;105.826;2023-07-24T13:20:40;18.15;;;9.60;;
76357;SDS011;65185;21.060;105.826;2023-07-24T13:23:06;19.35;;;10.50;;
76357;SDS011;65185;21.060;105.826;2023-07-24T13:25:32;19.95;;;10.52;;
76357;SDS011;65185;21.060;105.826;2023-07-24T13:27:59;18.20;;;10.93;;
76357;SDS011;65185;21.060;105.826;2023-07-24T13:30:25;20.73;;;10.30;;
76357;SDS011;65185;21.060;105.826;2023-07-24T13:32:52;18.25;;;10.63;;
76357;SDS011;65185;21.060;105.826;2023-07-24T13:35:18;21.52;;;10.60;;
76357;SDS011;65185;21.060;105.826;2023-07-24T13:37:45;19.65;;;10.90;;
76357;SDS011;65185;21.060;105.826;2023-07-24T13:40:11;19.85;;;10.65;;
76357;SDS011;65185;21.060;105.826;2023-07-24T13:42:38;20.65;;;11.75;;
76357;SDS011;65185;21.060;105.826;2023-07-24T13:45:04;24.17;;;11.27;;
76357;SDS011;65185;21.060;105.826;2023-07-24T13:47:31;25.50;;;11.93;;
76357;SDS011;65185;21.060;105.826;2023-07-24T13:49:57;21.40;;;10.60;;
76357;SDS011;65185;21.060;105.826;2023-07-24T13:52:25;21.38;;;11.80;;
76357;SDS011;65185;21.060;105.826;2023-07-24T13:54:51;19.13;;;10.57;;
76357;SDS011;65185;21.060;105.826;2023-07-24T13:57:18;20.88;;;10.55;;
76357;SDS011;65185;21.060;105.826;2023-07-24T13:59:44;20.95;;;11.30;;
76357;SDS011;65185;21.060;105.826;2023-07-24T14:02:11;21.10;;;10.90;;
76357;SDS011;65185;21.060;105.826;2023-07-24T14:04:38;22.15;;;10.75;;
76357;SDS011;65185;21.060;105.826;2023-07-24T14:07:05;18.90;;;10.98;;
76357;SDS011;65185;21.060;105.826;2023-07-24T14:09:31;17.30;;;9.73;;
76357;SDS011;65185;21.060;105.826;2023-07-24T14:12:00;20.63;;;10.55;;
76357;SDS011;65185;21.060;105.826;2023-07-24T14:14:26;16.83;;;8.80;;
76357;SDS011;65185;21.060;105.826;2023-07-24T14:16:53;22.23;;;10.18;;
76357;SDS011;65185;21.060;105.826;2023-07-24T14:19:19;18.70;;;9.68;;
76357;SDS011;65185;21.060;105.826;2023-07-24T14:21:46;20.00;;;10.10;;
76357;SDS011;65185;21.060;105.826;2023-07-24T14:24:12;19.73;;;9.68;;
76357;SDS011;65185;21.060;105.826;2023-07-24T14:26:39;17.63;;;9.68;;